McKnightstown, Pennsylvania
Current Conditions -  °F | °C
As of 9:53 PM on Wednesday 22 Oct 2014 (Local Time) from KRYT Reporting Station
Scattered Clouds Scattered Clouds  
Wind Chill: 50°   Ceiling: Unl
Heat Index: 50°   Visibility: 10mi
Dew Point: 41°   Wind: 10mph
Humidity: 71%   Direction: 360°N
Pressure: 29.97"   Gusts: 17mph
Location:  39.87°N, 77.33°W
Report Text: KRYT 230153Z AUTO 36009G15KT 10SM FEW048 SCT075 SCT100 10/05 A2997 RMK AO2 SLP150 T01000050 $
Loading
Personal Weather Stations






























Interactive Weather Map
Tropical Storm Tracking
New forecast layout! Learn more

10-Day Weather Forecast

Advertisements
Track Severe Weather on mobile